Time;durP1;ratioP1;P1;durP2;ratioP2;P2;SDS_P1;SDS_P2;PMS_P1;PMS_P2;Temp;Humidity;BMP_temperature;BMP_pressure;BME280_temperature;BME280_humidity;BME280_pressure;Samples;Min_cycle;Max_cycle;Signal;HPM_P1;HPM_P2
2021/08/07 00:01:09;;;;;;;4.80;4.10;;;;;;;18.69;86.46;99280.80;2776530;84;21396;-63
2021/08/07 00:05:11;;;;;;;4.50;2.83;;;;;;;18.74;86.47;99273.44;2779190;85;21489;-65
2021/08/07 00:09:13;;;;;;;5.17;2.80;;;;;;;18.78;86.55;99278.75;2780860;83;21031;-63
2021/08/07 00:13:14;;;;;;;3.65;2.85;;;;;;;18.87;86.45;99280.73;2826465;84;21040;-63
2021/08/07 00:17:18;;;;;;;3.30;3.02;;;;;;;18.95;85.92;99281.88;2826199;82;21012;-64
2021/08/07 00:21:21;;;;;;;6.58;3.58;;;;;;;19.01;85.16;99282.11;2826737;84;21020;-64
2021/08/07 00:25:23;;;;;;;3.95;3.05;;;;;;;19.00;84.43;99281.80;2826776;83;21076;-64
2021/08/07 00:29:25;;;;;;;4.45;3.50;;;;;;;18.95;83.93;99283.22;2826290;83;20988;-64
2021/08/07 00:33:27;;;;;;;4.37;3.85;;;;;;;18.91;83.52;99281.98;2826220;84;21031;-63
2021/08/07 00:37:30;;;;;;;4.37;3.22;;;;;;;18.86;83.30;99283.09;2825655;83;21036;-64
2021/08/07 00:41:33;;;;;;;4.05;3.33;;;;;;;18.81;83.03;99277.49;2826111;83;21043;-64
2021/08/07 00:45:38;;;;;;;4.72;3.02;;;;;;;18.76;82.70;99278.09;2826491;83;21012;-64
2021/08/07 00:49:42;;;;;;;4.33;3.30;;;;;;;18.63;83.05;99280.78;2826718;84;21040;-63
2021/08/07 00:53:46;;;;;;;7.17;3.90;;;;;;;18.53;84.00;99281.17;2826462;84;20972;-65
2021/08/07 00:57:48;;;;;;;5.08;3.58;;;;;;;18.40;84.71;99276.58;2825907;84;21008;-64
2021/08/07 01:02:01;;;;;;;3.90;3.50;;;;;;;18.28;85.44;99272.30;2787148;82;21006;-64
2021/08/07 01:06:43;;;;;;;4.90;2.98;;;;;;;18.13;86.10;99271.92;2819168;83;21038;-64
2021/08/07 01:11:02;;;;;;;3.77;3.45;;;;;;;18.04;87.07;99270.41;2819797;84;21062;-63
2021/08/07 01:15:09;;;;;;;4.28;3.55;;;;;;;18.08;86.57;99275.73;2746321;85;21015;-63
2021/08/07 01:19:18;;;;;;;3.98;3.33;;;;;;;18.06;85.75;99279.11;2775334;85;21061;-65
2021/08/07 01:23:42;;;;;;;6.28;3.67;;;;;;;18.03;85.35;99290.81;2774622;85;21091;-64
2021/08/07 01:27:47;;;;;;;5.17;4.25;;;;;;;17.98;85.30;99292.71;2775260;85;21061;-64
2021/08/07 01:31:51;;;;;;;11.23;3.73;;;;;;;17.98;84.59;99296.75;2775432;84;21015;-64
2021/08/07 01:35:54;;;;;;;4.97;4.28;;;;;;;17.93;84.71;99296.52;2775296;84;21150;-64
2021/08/07 01:40:00;;;;;;;5.60;3.42;;;;;;;17.91;84.50;99299.92;2775290;85;21086;-63
2021/08/07 01:44:06;;;;;;;5.27;4.27;;;;;;;17.88;84.49;99304.33;2774551;85;21556;-64
2021/08/07 01:48:20;;;;;;;5.20;4.35;;;;;;;17.86;84.56;99301.85;2775220;85;21018;-64
2021/08/07 01:52:27;;;;;;;4.30;3.42;;;;;;;17.82;84.54;99294.69;2774366;85;21053;-64
2021/08/07 01:56:32;;;;;;;5.22;4.00;;;;;;;17.76;84.38;99303.55;2775113;85;21090;-64
2021/08/07 02:00:39;;;;;;;3.60;3.30;;;;;;;17.73;84.56;99294.54;2775153;85;21097;-64
2021/08/07 02:04:41;;;;;;;6.05;4.40;;;;;;;17.72;84.46;99294.22;2774835;84;21030;-65
2021/08/07 02:08:44;;;;;;;6.35;3.50;;;;;;;17.67;84.65;99297.50;2775143;85;21030;-65
2021/08/07 02:12:47;;;;;;;11.85;5.35;;;;;;;17.66;84.67;99290.45;2775308;85;21019;-65
2021/08/07 02:16:52;;;;;;;4.35;4.00;;;;;;;17.66;84.65;99286.92;2775423;84;21022;-64
2021/08/07 02:20:57;;;;;;;4.00;3.02;;;;;;;17.62;84.55;99291.03;2775146;84;21058;-64
2021/08/07 02:24:59;;;;;;;6.30;3.85;;;;;;;17.55;85.32;99297.20;2775154;84;21078;-63
2021/08/07 02:29:03;;;;;;;3.33;2.58;;;;;;;17.49;85.70;99296.66;2775342;85;21823;-64
2021/08/07 02:33:07;;;;;;;3.30;2.65;;;;;;;17.35;86.46;99292.20;2775154;84;21057;-63
2021/08/07 02:37:09;;;;;;;4.10;3.37;;;;;;;17.21;87.02;99293.42;2775246;85;21074;-65
2021/08/07 02:41:13;;;;;;;4.28;3.33;;;;;;;17.17;87.67;99298.88;2774715;84;21007;-65
2021/08/07 02:45:17;;;;;;;3.62;3.12;;;;;;;17.11;87.83;99299.66;2775114;85;21536;-64
2021/08/07 02:49:22;;;;;;;6.17;2.72;;;;;;;17.11;88.16;99303.16;2775270;85;21077;-64
2021/08/07 02:53:26;;;;;;;3.35;3.05;;;;;;;17.16;87.95;99306.61;2775199;85;21030;-64
2021/08/07 02:57:28;;;;;;;3.33;3.02;;;;;;;17.21;87.82;99306.86;2775339;85;21054;-64
2021/08/07 03:01:30;;;;;;;3.70;3.05;;;;;;;17.23;87.49;99309.36;2776845;85;21070;-65
2021/08/07 03:05:32;;;;;;;2.52;2.33;;;;;;;17.28;87.10;99320.36;2778750;84;21023;-63
2021/08/07 03:09:36;;;;;;;2.77;2.27;;;;;;;17.30;86.86;99321.52;2778707;84;21129;-63
2021/08/07 03:13:38;;;;;;;3.87;2.70;;;;;;;17.30;86.76;99318.84;2778786;84;21034;-64
2021/08/07 03:17:41;;;;;;;2.85;2.20;;;;;;;17.32;86.64;99323.50;2778851;85;21062;-64
2021/08/07 03:21:42;;;;;;;4.45;3.05;;;;;;;17.32;86.68;99328.34;2778862;85;21030;-64
2021/08/07 03:25:45;;;;;;;3.27;2.27;;;;;;;17.35;86.60;99329.83;2778277;85;21043;-64
2021/08/07 03:29:47;;;;;;;3.72;2.22;;;;;;;17.37;86.63;99331.28;2778603;85;21571;-64
2021/08/07 03:33:49;;;;;;;6.17;2.77;;;;;;;17.39;86.70;99327.91;2778475;85;21034;-63
2021/08/07 03:37:53;;;;;;;4.33;2.17;;;;;;;17.41;87.02;99327.70;2778633;85;21536;-64
2021/08/07 03:41:54;;;;;;;4.15;3.10;;;;;;;17.45;87.46;99324.12;2778707;85;21043;-64
2021/08/07 03:45:57;;;;;;;9.60;2.05;;;;;;;17.51;87.90;99326.86;2778851;85;21122;-65
2021/08/07 03:49:59;;;;;;;3.10;2.67;;;;;;;17.54;88.16;99326.47;2778206;85;21356;-63
2021/08/07 03:54:00;;;;;;;4.03;2.02;;;;;;;17.53;87.80;99327.50;2778671;85;21034;-63
2021/08/07 03:58:02;;;;;;;4.22;2.25;;;;;;;17.48;88.50;99338.51;2788051;84;21038;-63
2021/08/07 04:02:05;;;;;;;3.65;2.50;;;;;;;17.44;88.89;99343.96;2844744;83;21027;-64
2021/08/07 04:06:07;;;;;;;3.50;2.52;;;;;;;17.45;89.35;99339.72;2837441;84;21047;-64
2021/08/07 04:10:11;;;;;;;2.67;1.90;;;;;;;17.49;89.75;99341.02;2788678;85;21102;-63
2021/08/07 04:14:13;;;;;;;3.17;1.92;;;;;;;17.58;90.07;99340.86;2789141;85;20983;-63
2021/08/07 04:18:15;;;;;;;3.37;1.50;;;;;;;17.70;90.30;99341.47;2837671;84;20999;-64
2021/08/07 04:22:19;;;;;;;3.42;2.20;;;;;;;17.87;90.64;99344.36;2837680;84;21050;-64
2021/08/07 04:26:21;;;;;;;2.87;1.67;;;;;;;18.06;90.43;99346.91;2790964;83;21034;-64
2021/08/07 04:30:23;;;;;;;3.83;2.25;;;;;;;18.23;90.56;99348.25;2798362;85;21055;-64
2021/08/07 04:34:25;;;;;;;1.95;1.85;;;;;;;18.82;93.02;99346.00;2805522;85;21007;-63
2021/08/07 04:38:26;;;;;;;3.37;2.10;;;;;;;19.41;91.91;99347.67;2799042;83;21027;-64
2021/08/07 04:42:28;;;;;;;1.82;1.62;;;;;;;20.43;92.16;99352.91;2806260;84;21058;-64
2021/08/07 04:46:32;;;;;;;1.75;1.55;;;;;;;21.35;87.13;99342.34;2800003;85;21023;-63
2021/08/07 04:50:35;;;;;;;1.65;1.50;;;;;;;22.09;83.42;99349.81;2807189;84;21047;-63
2021/08/07 04:54:38;;;;;;;1.87;1.55;;;;;;;22.76;79.66;99342.28;2849632;83;21051;-64
2021/08/07 04:58:40;;;;;;;3.80;1.82;;;;;;;23.46;79.00;99336.46;2849760;83;20979;-64
2021/08/07 05:02:45;;;;;;;2.15;1.70;;;;;;;24.28;76.34;99347.58;2852763;82;21043;-63
2021/08/07 05:06:46;;;;;;;1.52;1.40;;;;;;;24.88;73.00;99350.95;2854668;83;20952;-63
2021/08/07 05:10:48;;;;;;;3.10;1.60;;;;;;;25.26;70.36;99350.81;2855045;83;21082;-63
2021/08/07 05:14:50;;;;;;;1.37;0.80;;;;;;;25.62;68.23;99348.67;2854450;83;21078;-63
2021/08/07 05:18:58;;;;;;;2.00;1.15;;;;;;;25.89;66.23;99343.91;2855379;83;21022;-64
2021/08/07 05:23:00;;;;;;;2.25;1.10;;;;;;;26.15;65.55;99348.34;2855325;83;21023;-64
2021/08/07 05:27:05;;;;;;;1.60;0.82;;;;;;;26.40;65.09;99355.78;2855438;82;21003;-63
2021/08/07 05:31:07;;;;;;;1.25;1.12;;;;;;;26.64;64.20;99361.24;2855797;83;20995;-63
2021/08/07 05:35:10;;;;;;;1.80;0.98;;;;;;;26.92;63.62;99361.30;2855686;83;20992;-63
2021/08/07 05:39:23;;;;;;;3.33;1.47;;;;;;;27.14;62.89;99369.44;2855971;83;20968;-63
2021/08/07 05:43:28;;;;;;;1.72;0.98;;;;;;;27.13;60.22;99363.70;2855949;83;21058;-63
2021/08/07 05:47:30;;;;;;;1.45;1.30;;;;;;;27.08;60.07;99360.37;2856183;82;21360;-63
2021/08/07 05:51:35;;;;;;;1.12;0.98;;;;;;;27.14;59.74;99358.52;2855844;83;21079;-63
2021/08/07 05:55:35;;;;;;;2.35;1.02;;;;;;;27.12;58.84;99357.12;2855658;83;21027;-63
2021/08/07 05:59:38;;;;;;;5.33;2.08;;;;;;;26.98;60.03;99357.53;2808095;83;21059;-64
2021/08/07 06:03:40;;;;;;;0.93;0.80;;;;;;;27.18;58.19;99359.64;2861979;82;21072;-64
2021/08/07 06:07:48;;;;;;;1.17;1.07;;;;;;;27.11;59.03;99360.37;2874700;82;20978;-63
2021/08/07 06:11:51;;;;;;;2.62;0.78;;;;;;;27.00;58.09;99362.19;2827813;84;21092;-63
2021/08/07 06:15:54;;;;;;;2.02;0.88;;;;;;;26.99;59.30;99369.28;2827708;84;20974;-63
2021/08/07 06:19:57;;;;;;;3.83;1.50;;;;;;;26.88;58.44;99362.34;2827499;84;21065;-63
2021/08/07 06:23:59;;;;;;;2.60;0.85;;;;;;;26.81;57.80;99365.23;2827762;84;20966;-63
2021/08/07 06:28:22;;;;;;;0.90;0.72;;;;;;;26.66;58.57;99375.44;2827935;84;21057;-63
2021/08/07 06:32:24;;;;;;;4.40;0.90;;;;;;;26.78;57.66;99379.95;2838492;83;21056;-64
2021/08/07 06:36:28;;;;;;;1.75;0.80;;;;;;;26.85;57.57;99377.86;2854540;83;21010;-63
2021/08/07 06:40:30;;;;;;;1.12;0.72;;;;;;;26.62;57.22;99374.84;2875501;83;21001;-63
2021/08/07 06:44:32;;;;;;;1.50;0.60;;;;;;;26.30;57.86;99375.00;2852969;83;21057;-63
2021/08/07 06:48:37;;;;;;;1.10;0.80;;;;;;;26.09;58.73;99373.33;2848371;83;21045;-64
2021/08/07 06:52:39;;;;;;;3.70;0.90;;;;;;;25.93;58.81;99367.38;2863586;83;21038;-63
2021/08/07 06:56:42;;;;;;;1.70;0.80;;;;;;;25.85;59.68;99385.52;2839736;83;20990;-63
2021/08/07 07:00:46;;;;;;;2.37;0.98;;;;;;;25.77;59.77;99388.12;2852254;83;21084;-65
2021/08/07 07:04:50;;;;;;;2.17;1.32;;;;;;;25.52;59.28;99398.34;2874987;83;21018;-63
2021/08/07 07:08:55;;;;;;;2.10;1.20;;;;;;;25.23;60.21;99396.17;2833717;82;21052;-63
2021/08/07 07:12:58;;;;;;;1.30;1.07;;;;;;;25.12;62.04;99392.45;2852848;83;21093;-64
2021/08/07 07:17:04;;;;;;;1.77;0.60;;;;;;;25.26;61.25;99400.31;2844452;83;21029;-64
2021/08/07 07:21:09;;;;;;;11.97;1.20;;;;;;;25.15;60.91;99397.39;2864821;83;20978;-64
2021/08/07 07:25:14;;;;;;;3.15;0.98;;;;;;;25.04;61.29;99395.58;2856075;83;21664;-63
2021/08/07 07:29:17;;;;;;;1.05;0.80;;;;;;;24.89;61.30;99396.12;2827398;84;21021;-64
2021/08/07 07:33:18;;;;;;;1.52;0.90;;;;;;;24.92;61.40;99392.91;2841292;83;21494;-63
2021/08/07 07:37:23;;;;;;;1.42;0.93;;;;;;;25.00;61.04;99394.41;2846838;83;21005;-62
2021/08/07 07:41:25;;;;;;;0.60;0.40;;;;;;;25.19;61.65;99403.19;2840416;82;21005;-63
2021/08/07 07:45:27;;;;;;;3.55;1.05;;;;;;;25.43;61.05;99399.80;2848720;83;21064;-64
2021/08/07 07:49:32;;;;;;;2.02;0.82;;;;;;;25.35;60.27;99398.83;2864250;83;21085;-63
2021/08/07 07:53:33;;;;;;;0.70;0.60;;;;;;;25.39;60.00;99399.46;2845026;82;21459;-63
2021/08/07 07:57:36;;;;;;;2.02;1.12;;;;;;;25.23;59.82;99405.18;2870600;83;20974;-63
2021/08/07 08:01:39;;;;;;;1.72;0.80;;;;;;;25.13;60.25;99411.78;2843816;83;21021;-63
2021/08/07 08:05:41;;;;;;;1.20;0.75;;;;;;;24.98;60.20;99411.52;2857167;83;20994;-63
2021/08/07 08:09:43;;;;;;;6.72;0.75;;;;;;;24.98;60.52;99408.80;2875742;82;21560;-63
2021/08/07 08:13:45;;;;;;;1.17;0.88;;;;;;;24.99;59.75;99414.53;2850897;83;21078;-63
2021/08/07 08:17:50;;;;;;;1.15;1.02;;;;;;;24.78;59.78;99405.42;2827491;84;21037;-63
2021/08/07 08:21:51;;;;;;;6.47;0.90;;;;;;;24.98;60.36;99408.25;2844073;81;21061;-64
2021/08/07 08:25:55;;;;;;;0.93;0.70;;;;;;;25.39;59.55;99407.63;2893381;81;21037;-64
2021/08/07 08:29:58;;;;;;;1.07;0.75;;;;;;;25.61;58.08;99405.56;2866211;82;21021;-63
2021/08/07 08:33:59;;;;;;;1.45;0.75;;;;;;;25.91;57.47;99399.48;2843046;83;21006;-64
2021/08/07 08:38:03;;;;;;;1.25;1.15;;;;;;;26.36;56.73;99393.61;2869908;83;20994;-64
2021/08/07 08:42:07;;;;;;;1.80;0.82;;;;;;;26.77;56.89;99398.76;2836172;82;21045;-65
2021/08/07 08:46:10;;;;;;;0.70;0.65;;;;;;;26.97;56.39;99400.91;2852269;83;21066;-65
2021/08/07 08:50:22;;;;;;;1.22;0.50;;;;;;;26.96;55.31;99401.18;2860960;82;21021;-63
2021/08/07 08:54:21;;;;;;;1.57;0.80;;;;;;;26.91;55.15;99397.29;2848383;83;21084;-63
2021/08/07 08:58:24;;;;;;;0.88;0.82;;;;;;;26.71;55.52;99392.94;2871790;83;21002;-65
2021/08/07 09:02:26;;;;;;;1.17;0.65;;;;;;;26.71;54.85;99390.21;2863407;82;21065;-64
2021/08/07 09:06:28;;;;;;;0.70;0.50;;;;;;;26.83;55.41;99392.27;2848163;82;21012;-64
2021/08/07 09:10:30;;;;;;;3.12;0.60;;;;;;;26.92;53.88;99385.33;2810908;82;21101;-64
2021/08/07 09:14:38;;;;;;;2.25;0.60;;;;;;;26.88;53.14;99384.72;2819003;83;21029;-63
2021/08/07 09:18:44;;;;;;;1.27;0.75;;;;;;;26.71;53.34;99390.21;2839726;83;21026;-64
2021/08/07 09:22:46;;;;;;;1.85;0.90;;;;;;;26.48;54.23;99396.22;2815237;83;20978;-64
2021/08/07 09:26:54;;;;;;;12.25;1.90;;;;;;;26.18;55.00;99390.66;2830057;83;21006;-63
2021/08/07 09:30:57;;;;;;;1.22;0.82;;;;;;;26.01;57.75;99389.28;2812616;82;20998;-64
2021/08/07 09:35:08;;;;;;;1.92;0.70;;;;;;;26.27;56.91;99390.50;2819400;82;20979;-64
2021/08/07 09:39:14;;;;;;;0.72;0.37;;;;;;;26.32;55.99;99391.11;2828505;83;21006;-63
2021/08/07 09:43:21;;;;;;;3.15;1.15;;;;;;;26.55;55.21;99387.33;2826208;82;21038;-63
2021/08/07 09:47:25;;;;;;;0.68;0.50;;;;;;;26.85;54.93;99380.59;2839218;83;21082;-63
2021/08/07 09:51:33;;;;;;;1.42;0.70;;;;;;;27.06;54.07;99379.44;2844828;82;20998;-63
2021/08/07 09:55:34;;;;;;;1.10;0.50;;;;;;;27.25;55.04;99386.73;2820064;82;21025;-63
2021/08/07 09:59:48;;;;;;;1.30;0.60;;;;;;;27.48;55.36;99386.91;2842035;83;21038;-63
2021/08/07 10:03:56;;;;;;;1.57;0.72;;;;;;;27.69;52.26;99385.73;2843369;82;21085;-64
2021/08/07 10:08:03;;;;;;;1.80;0.93;;;;;;;27.68;52.70;99383.28;2857217;81;21018;-64
2021/08/07 10:12:11;;;;;;;1.10;0.50;;;;;;;27.76;51.70;99378.16;2857252;82;21085;-63
2021/08/07 10:16:14;;;;;;;2.35;0.80;;;;;;;27.96;52.35;99378.55;2857905;82;21006;-64
2021/08/07 10:20:17;;;;;;;2.45;1.00;;;;;;;27.79;52.53;99387.72;2855184;82;21010;-64
2021/08/07 10:24:20;;;;;;;4.00;0.98;;;;;;;27.31;51.76;99395.24;2862721;82;20978;-63
2021/08/07 10:28:25;;;;;;;2.40;1.10;;;;;;;26.82;53.09;99390.63;2858331;82;20993;-63
2021/08/07 10:32:28;;;;;;;;;;;;;;;26.78;54.94;99384.84;2872057;82;21001;-63
2021/08/07 10:36:39;;;;;;;2.02;0.95;;;;;;;26.97;54.33;99376.91;2870547;82;20110;-63
2021/08/07 10:40:41;;;;;;;3.05;0.65;;;;;;;27.08;52.59;99381.36;2828986;82;21308;-64
2021/08/07 10:44:45;;;;;;;63.52;26.23;;;;;;;27.20;51.07;99379.31;2897405;81;20963;-64
2021/08/07 10:48:56;;;;;;;84.47;31.50;;;;;;;27.16;53.34;99375.98;2805618;83;20989;-64
2021/08/07 10:53:03;;;;;;;5.62;2.05;;;;;;;27.16;54.07;99365.91;2775541;84;21019;-63
2021/08/07 10:57:40;;;;;;;2.40;0.60;;;;;;;27.41;52.22;99349.45;2772799;85;21020;-64
2021/08/07 11:01:54;;;;;;;0.40;0.30;;;;;;;27.57;49.50;99344.16;2769612;85;21043;-64
2021/08/07 11:05:56;;;;;;;0.72;0.40;;;;;;;27.57;49.51;99344.16;2764415;85;21047;-63
2021/08/07 11:10:14;;;;;;;2.12;0.50;;;;;;;27.53;49.33;99334.28;2756538;85;21063;-63
2021/08/07 11:14:30;;;;;;;0.72;0.50;;;;;;;27.22;49.27;99347.12;2770247;85;20996;-63
2021/08/07 11:18:33;;;;;;;0.82;0.35;;;;;;;27.21;50.18;99343.27;2774160;83;21058;-63
2021/08/07 11:22:44;;;;;;;3.35;0.78;;;;;;;27.33;48.94;99344.49;2785690;85;21051;-62
2021/08/07 11:26:53;;;;;;;0.85;0.30;;;;;;;27.29;48.84;99344.70;2850809;83;21012;-62
2021/08/07 11:31:15;;;;;;;3.33;0.95;;;;;;;27.27;49.24;99346.88;2806445;83;21003;-64
2021/08/07 11:35:17;;;;;;;0.68;0.68;;;;;;;27.27;48.89;99335.95;2790955;83;21018;-64
2021/08/07 11:39:21;;;;;;;1.22;0.68;;;;;;;27.50;50.74;99328.77;2800929;82;20971;-62
2021/08/07 11:43:41;;;;;;;0.95;0.53;;;;;;;27.66;48.59;99320.71;2795126;84;21040;-64
2021/08/07 11:47:50;;;;;;;1.00;0.88;;;;;;;27.89;48.33;99314.56;2779534;85;21253;-63
2021/08/07 11:51:53;;;;;;;0.55;0.55;;;;;;;28.00;47.55;99315.44;2780008;85;21007;-63
2021/08/07 11:56:05;;;;;;;36.68;4.78;;;;;;;27.99;49.59;99315.16;2788435;83;21047;-63
2021/08/07 12:00:38;;;;;;;2.35;0.70;;;;;;;28.20;51.41;99312.02;2798404;83;21035;-63
2021/08/07 12:04:40;;;;;;;1.82;0.75;;;;;;;28.47;48.40;99305.54;2796632;82;21046;-63
2021/08/07 12:08:49;;;;;;;6.30;2.08;;;;;;;28.64;49.93;99310.80;2809493;82;21018;-62
2021/08/07 12:12:51;;;;;;;2.65;1.02;;;;;;;28.71;47.72;99320.13;2821545;82;21054;-64
2021/08/07 12:16:55;;;;;;;2.25;0.90;;;;;;;28.85;47.81;99319.88;2799482;82;21042;-63
2021/08/07 12:20:58;;;;;;;4.87;1.87;;;;;;;29.04;47.97;99322.09;2792669;84;21003;-63
2021/08/07 12:25:05;;;;;;;1.10;0.70;;;;;;;29.02;46.46;99318.28;2802465;82;20991;-65
2021/08/07 12:29:20;;;;;;;1.32;0.90;;;;;;;29.06;46.47;99318.00;2820831;82;21023;-62
2021/08/07 12:33:24;;;;;;;;;;;;;;;29.21;46.63;99311.70;2832059;83;21018;-63
2021/08/07 12:37:35;;;;;;;1.62;0.55;;;;;;;29.34;46.30;99288.98;2791835;82;20246;-64
2021/08/07 12:41:37;;;;;;;0.60;0.60;;;;;;;29.34;46.30;99288.98;2821344;82;20979;-63
2021/08/07 12:45:40;;;;;;;0.95;0.40;;;;;;;29.33;46.56;99276.39;2791840;84;21030;-63
2021/08/07 12:49:52;;;;;;;10.30;1.77;;;;;;;29.22;46.06;99272.84;2783756;85;21013;-63
2021/08/07 12:53:59;;;;;;;30.32;5.90;;;;;;;29.05;45.64;99268.46;2783682;85;21062;-62
2021/08/07 12:58:22;;;;;;;2.35;0.62;;;;;;;29.08;47.88;99277.48;2783765;85;20987;-62
2021/08/07 13:02:25;;;;;;;0.50;0.30;;;;;;;29.43;46.19;99282.43;2787146;83;21006;-63
2021/08/07 13:06:31;;;;;;;2.90;0.68;;;;;;;29.39;44.39;99275.84;2789884;84;21046;-63
2021/08/07 13:10:35;;;;;;;1.12;0.57;;;;;;;29.23;45.67;99284.06;2797624;83;21074;-63
2021/08/07 13:14:54;;;;;;;0.97;0.40;;;;;;;29.23;45.67;99284.06;2847665;83;20961;-63
2021/08/07 13:19:21;;;;;;;1.25;0.57;;;;;;;29.08;46.14;99290.34;2837893;83;21024;-62
2021/08/07 13:23:35;;;;;;;3.27;0.78;;;;;;;28.98;46.97;99296.62;2827263;84;21009;-64
2021/08/07 13:27:45;;;;;;;1.98;0.70;;;;;;;28.97;46.80;99292.81;2826963;84;20992;-62
2021/08/07 13:31:48;;;;;;;1.05;0.40;;;;;;;28.95;46.99;99295.00;2827097;84;21016;-63
2021/08/07 13:35:50;;;;;;;1.02;0.68;;;;;;;28.95;46.99;99295.00;2827211;83;21012;-64
2021/08/07 13:39:56;;;;;;;3.08;0.80;;;;;;;28.78;47.63;99298.78;2827306;84;21297;-64
2021/08/07 13:44:00;;;;;;;0.70;0.42;;;;;;;28.78;47.63;99298.78;2827303;84;21036;-63
2021/08/07 13:48:02;;;;;;;1.35;0.55;;;;;;;28.76;48.24;99307.81;2819012;83;20987;-63
2021/08/07 13:52:04;;;;;;;0.80;0.62;;;;;;;28.75;48.06;99299.33;2809172;84;21023;-63
2021/08/07 13:56:06;;;;;;;0.42;0.30;;;;;;;28.90;47.21;99302.66;2780499;85;21031;-61
2021/08/07 14:00:10;;;;;;;0.90;0.60;;;;;;;28.90;46.23;99302.13;2780323;85;20975;-63
2021/08/07 14:04:14;;;;;;;2.50;0.90;;;;;;;29.02;46.19;99296.91;2791977;84;21280;-63
2021/08/07 14:08:18;;;;;;;0.75;0.40;;;;;;;28.88;45.67;99291.16;2850814;83;21003;-62
2021/08/07 14:12:20;;;;;;;0.80;0.30;;;;;;;28.68;45.12;99283.70;2867388;83;21130;-63
2021/08/07 14:16:27;;;;;;;1.20;0.70;;;;;;;28.33;45.28;99287.45;2867220;83;20976;-63
2021/08/07 14:20:30;;;;;;;1.27;0.65;;;;;;;28.31;45.86;99288.27;2867351;83;20976;-62
2021/08/07 14:24:32;;;;;;;2.02;1.07;;;;;;;28.32;47.62;99283.92;2867395;82;20984;-63
2021/08/07 14:28:36;;;;;;;1.12;0.57;;;;;;;28.51;46.42;99286.96;2867340;82;21027;-62
2021/08/07 14:32:38;;;;;;;0.93;0.47;;;;;;;28.51;45.78;99280.69;2867610;83;21004;-62
2021/08/07 14:36:47;;;;;;;20.68;3.27;;;;;;;28.54;45.14;99281.52;2811907;82;21034;-62
2021/08/07 14:40:49;;;;;;;1.98;0.65;;;;;;;28.76;45.71;99273.61;2800654;84;21054;-63
2021/08/07 14:44:52;;;;;;;3.83;1.27;;;;;;;29.04;44.85;99267.35;2783697;85;21030;-63
2021/08/07 14:48:57;;;;;;;1.37;0.68;;;;;;;29.14;45.86;99276.94;2783397;85;21062;-63
2021/08/07 14:52:58;;;;;;;;;;;;;;;29.34;45.28;99277.46;2830721;82;20947;-63
2021/08/07 14:57:01;;;;;;;0.72;0.47;;;;;;;29.50;44.44;99264.61;2830515;84;20110;-63
2021/08/07 15:01:03;;;;;;;2.70;0.40;;;;;;;29.53;44.92;99237.77;2808403;84;21057;-63
2021/08/07 15:05:06;;;;;;;2.42;0.60;;;;;;;29.84;45.59;99250.81;2786822;83;21062;-63
2021/08/07 15:09:25;;;;;;;3.00;0.70;;;;;;;30.02;45.35;99254.87;2801795;83;21042;-62
2021/08/07 15:13:28;;;;;;;1.57;0.60;;;;;;;30.16;44.25;99258.38;2795890;83;21074;-62
2021/08/07 15:17:31;;;;;;;0.95;0.50;;;;;;;30.29;44.11;99255.57;2818195;84;21044;-62
2021/08/07 15:21:35;;;;;;;1.85;0.70;;;;;;;30.50;42.43;99242.56;2827052;82;21031;-63
2021/08/07 15:25:37;;;;;;;1.35;0.70;;;;;;;30.44;43.89;99230.80;2803198;83;21034;-62
2021/08/07 15:29:49;;;;;;;1.10;0.70;;;;;;;30.45;44.26;99226.12;2813422;83;21097;-64
2021/08/07 15:33:54;;;;;;;1.72;0.70;;;;;;;30.41;44.32;99229.17;2785359;84;21122;-62
2021/08/07 15:38:06;;;;;;;4.25;1.67;;;;;;;30.37;43.12;99223.98;2779370;85;21054;-62
2021/08/07 15:42:10;;;;;;;1.90;1.35;;;;;;;30.23;44.57;99225.98;2800006;84;21056;-62
2021/08/07 15:46:14;;;;;;;8.05;0.98;;;;;;;30.15;44.87;99227.95;2826394;84;21060;-62
2021/08/07 15:50:22;;;;;;;3.02;0.50;;;;;;;30.07;44.59;99221.14;2822948;83;21107;-62
2021/08/07 15:54:25;;;;;;;3.67;0.60;;;;;;;29.97;44.17;99214.29;2801129;83;21065;-63
2021/08/07 15:59:00;;;;;;;11.80;0.93;;;;;;;29.89;43.97;99214.35;2794426;83;21043;-64
2021/08/07 16:03:05;;;;;;;2.25;1.00;;;;;;;29.77;45.71;99214.11;2795673;83;21019;-63
2021/08/07 16:07:10;;;;;;;1.98;0.98;;;;;;;29.71;46.05;99216.61;2856874;82;21068;-64
2021/08/07 16:11:12;;;;;;;1.27;0.88;;;;;;;29.46;46.74;99206.55;2859312;82;21053;-63
2021/08/07 16:15:14;;;;;;;3.77;1.85;;;;;;;29.15;47.66;99219.73;2865103;82;21064;-64
2021/08/07 16:19:18;;;;;;;2.00;1.05;;;;;;;28.95;48.72;99226.02;2840866;82;20997;-63
2021/08/07 16:23:20;;;;;;;1.33;0.97;;;;;;;28.77;48.90;99206.84;2837242;84;21001;-63
2021/08/07 16:27:32;;;;;;;1.60;1.07;;;;;;;28.77;47.61;99226.00;2854446;82;21029;-63
2021/08/07 16:31:33;;;;;;;2.58;0.98;;;;;;;28.69;47.89;99228.73;2849580;82;21032;-64
2021/08/07 16:35:36;;;;;;;2.05;0.57;;;;;;;28.56;48.99;99238.83;2859947;82;21060;-64
2021/08/07 16:39:46;;;;;;;36.55;6.90;;;;;;;28.42;48.83;99234.44;2861234;82;28176;-63
2021/08/07 16:43:48;;;;;;;5.40;1.62;;;;;;;28.29;50.12;99231.67;2861592;82;21060;-63
2021/08/07 16:47:54;;;;;;;5.70;1.57;;;;;;;28.13;49.67;99223.95;2863682;82;21029;-63
2021/08/07 16:51:56;;;;;;;4.45;1.52;;;;;;;27.85;50.51;99232.32;2872751;82;21091;-63
2021/08/07 16:55:59;;;;;;;6.30;1.82;;;;;;;27.46;50.83;99223.89;2844622;82;21037;-63
2021/08/07 17:00:08;;;;;;;6.03;1.60;;;;;;;27.09;52.18;99226.09;2859715;82;20978;-63
2021/08/07 17:04:10;;;;;;;3.90;1.47;;;;;;;26.80;52.61;99231.84;2878234;82;20982;-66
2021/08/07 17:08:11;;;;;;;14.13;1.90;;;;;;;26.64;53.40;99239.08;2831840;83;21033;-63
2021/08/07 17:12:15;;;;;;;2.42;1.80;;;;;;;26.38;53.43;99241.00;2851251;81;21381;-65
2021/08/07 17:16:18;;;;;;;6.60;2.90;;;;;;;26.23;54.21;99243.00;2861644;83;21008;-63
2021/08/07 17:20:20;;;;;;;9.73;3.70;;;;;;;26.16;54.52;99237.45;2851752;81;20986;-65
2021/08/07 17:24:21;;;;;;;10.58;2.70;;;;;;;26.04;54.63;99234.31;2880095;82;21005;-64
2021/08/07 17:28:24;;;;;;;2.40;1.87;;;;;;;25.95;55.01;99233.13;2854497;82;20977;-66
2021/08/07 17:32:26;;;;;;;5.53;1.75;;;;;;;25.85;55.32;99228.38;2860296;82;21045;-66
2021/08/07 17:36:28;;;;;;;7.75;3.60;;;;;;;25.76;55.25;99221.19;2855492;82;21040;-66
2021/08/07 17:40:30;;;;;;;44.77;21.27;;;;;;;25.73;54.97;99205.88;2831031;84;21029;-65
2021/08/07 17:44:32;;;;;;;24.70;10.85;;;;;;;25.63;55.92;99201.13;2841022;82;21017;-68
2021/08/07 17:48:35;;;;;;;8.80;1.92;;;;;;;25.51;56.51;99202.05;2861824;82;21009;-67
2021/08/07 17:52:39;;;;;;;10.23;3.40;;;;;;;25.43;56.42;99201.63;2863830;82;21030;-65
2021/08/07 17:56:43;;;;;;;4.78;2.20;;;;;;;25.35;56.70;99203.71;2853548;82;21068;-65
2021/08/07 18:00:45;;;;;;;4.33;2.60;;;;;;;25.28;56.40;99190.83;2866077;82;21017;-65
2021/08/07 18:04:47;;;;;;;4.28;1.30;;;;;;;25.23;57.34;99192.94;2831149;83;21025;-66
2021/08/07 18:08:50;;;;;;;3.05;1.27;;;;;;;25.09;56.68;99186.19;2832006;84;21037;-64
2021/08/07 18:12:52;;;;;;;4.58;1.45;;;;;;;24.98;57.68;99192.00;2831554;84;21089;-64
2021/08/07 18:16:55;;;;;;;3.98;0.88;;;;;;;24.91;58.07;99192.16;2832162;84;21021;-66
2021/08/07 18:20:58;;;;;;;1.67;1.57;;;;;;;24.84;59.04;99191.52;2831606;83;21021;-64
2021/08/07 18:25:00;;;;;;;3.70;1.27;;;;;;;24.66;58.78;99189.30;2811091;84;20989;-62
2021/08/07 18:29:07;;;;;;;15.05;1.87;;;;;;;24.52;59.43;99180.64;2832095;83;20985;-63
2021/08/07 18:33:09;;;;;;;5.90;2.40;;;;;;;24.44;59.64;99181.02;2832010;84;21045;-65
2021/08/07 18:37:13;;;;;;;8.68;2.15;;;;;;;24.41;59.58;99183.42;2832016;83;21033;-63
2021/08/07 18:41:16;;;;;;;10.20;3.20;;;;;;;24.37;59.09;99180.36;2831721;84;21072;-64
2021/08/07 18:45:19;;;;;;;8.28;2.70;;;;;;;24.28;59.53;99184.55;2851547;83;21018;-66
2021/08/07 18:49:22;;;;;;;15.30;3.85;;;;;;;24.15;60.58;99187.00;2854796;83;21003;-65
2021/08/07 18:53:24;;;;;;;15.93;4.78;;;;;;;24.02;61.29;99184.89;2800547;85;21003;-68
2021/08/07 18:57:31;;;;;;;20.97;5.45;;;;;;;23.89;62.17;99189.20;2804195;83;21011;-63
2021/08/07 19:01:35;;;;;;;25.85;8.33;;;;;;;23.75;62.65;99181.31;2774937;85;21074;-65
2021/08/07 19:05:37;;;;;;;40.55;19.20;;;;;;;23.69;63.05;99187.72;2785151;84;21076;-66
2021/08/07 19:09:39;;;;;;;34.38;19.60;;;;;;;23.60;63.48;99188.61;2780045;85;21035;-62
2021/08/07 19:13:42;;;;;;;28.15;13.00;;;;;;;23.54;63.58;99188.22;2783654;85;21424;-64